Terminal Aerodrome Forecast
Issued by NWS

Home | Current Version | Previous Version | Text Only | Print | Product List | Glossary On
Versions: 1 2 3 4 5 6 7 8 9 10 11 12 13 14 15 16 17 18 19 20 21 22
249
FTPA31 PHFO 241312 AAA
TAFHLI
TAF AMD
PHLI 241312Z 2413/2512 27006KT P6SM VCSH SCT012 BKN020
     FM241900 08010KT P6SM FEW020 SCT035
     FM250500 06006KT P6SM FEW025 SCT035=

USA.gov is the U.S. government's official web portal to all federal, state and local government web resources and services.